sensor_id;sensor_type;location;lat;lon;timestamp;P1;durP1;ratioP1;P2;durP2;ratioP2
19758;SDS011;10038;42.662;23.278;2022-12-18T00:01:40;6.00;;;4.63;;
19758;SDS011;10038;42.662;23.278;2022-12-18T00:04:11;10.43;;;5.70;;
19758;SDS011;10038;42.662;23.278;2022-12-18T00:06:42;7.53;;;4.80;;
19758;SDS011;10038;42.662;23.278;2022-12-18T00:09:08;11.57;;;5.27;;
19758;SDS011;10038;42.662;23.278;2022-12-18T00:11:35;10.37;;;7.40;;
19758;SDS011;10038;42.662;23.278;2022-12-18T00:14:01;8.73;;;5.50;;
19758;SDS011;10038;42.662;23.278;2022-12-18T00:16:28;6.67;;;5.00;;
19758;SDS011;10038;42.662;23.278;2022-12-18T00:18:55;8.37;;;5.27;;
19758;SDS011;10038;42.662;23.278;2022-12-18T00:21:25;8.70;;;5.10;;
19758;SDS011;10038;42.662;23.278;2022-12-18T00:23:53;10.50;;;5.77;;
19758;SDS011;10038;42.662;23.278;2022-12-18T00:26:20;7.37;;;4.60;;
19758;SDS011;10038;42.662;23.278;2022-12-18T00:28:47;6.63;;;4.83;;
19758;SDS011;10038;42.662;23.278;2022-12-18T00:31:15;8.00;;;5.90;;
19758;SDS011;10038;42.662;23.278;2022-12-18T00:33:42;9.60;;;5.27;;
19758;SDS011;10038;42.662;23.278;2022-12-18T00:36:09;7.37;;;5.50;;
19758;SDS011;10038;42.662;23.278;2022-12-18T00:38:36;9.63;;;5.30;;
19758;SDS011;10038;42.662;23.278;2022-12-18T00:41:04;10.33;;;6.57;;
19758;SDS011;10038;42.662;23.278;2022-12-18T00:43:34;6.17;;;4.03;;
19758;SDS011;10038;42.662;23.278;2022-12-18T00:45:59;8.30;;;4.53;;
19758;SDS011;10038;42.662;23.278;2022-12-18T00:48:26;12.10;;;5.97;;
19758;SDS011;10038;42.662;23.278;2022-12-18T00:50:52;8.50;;;4.87;;
19758;SDS011;10038;42.662;23.278;2022-12-18T00:53:19;6.50;;;3.67;;
19758;SDS011;10038;42.662;23.278;2022-12-18T00:55:45;7.03;;;5.33;;
19758;SDS011;10038;42.662;23.278;2022-12-18T00:58:14;8.33;;;4.70;;
19758;SDS011;10038;42.662;23.278;2022-12-18T01:00:42;8.20;;;5.30;;
19758;SDS011;10038;42.662;23.278;2022-12-18T01:03:08;10.20;;;5.27;;
19758;SDS011;10038;42.662;23.278;2022-12-18T01:05:38;7.10;;;5.00;;
19758;SDS011;10038;42.662;23.278;2022-12-18T01:08:05;8.20;;;5.70;;
19758;SDS011;10038;42.662;23.278;2022-12-18T01:10:31;8.13;;;4.50;;
19758;SDS011;10038;42.662;23.278;2022-12-18T01:12:58;8.13;;;4.73;;
19758;SDS011;10038;42.662;23.278;2022-12-18T01:15:26;8.40;;;5.60;;
19758;SDS011;10038;42.662;23.278;2022-12-18T01:17:52;8.23;;;5.23;;
19758;SDS011;10038;42.662;23.278;2022-12-18T01:20:19;9.97;;;5.90;;
19758;SDS011;10038;42.662;23.278;2022-12-18T01:22:45;8.33;;;5.17;;
19758;SDS011;10038;42.662;23.278;2022-12-18T01:25:12;8.33;;;5.30;;
19758;SDS011;10038;42.662;23.278;2022-12-18T01:27:38;9.07;;;5.60;;
19758;SDS011;10038;42.662;23.278;2022-12-18T01:30:05;8.00;;;5.10;;
19758;SDS011;10038;42.662;23.278;2022-12-18T01:32:33;12.07;;;7.70;;
19758;SDS011;10038;42.662;23.278;2022-12-18T01:35:00;8.43;;;5.30;;
19758;SDS011;10038;42.662;23.278;2022-12-18T01:37:26;8.63;;;6.13;;
19758;SDS011;10038;42.662;23.278;2022-12-18T01:39:53;9.00;;;6.43;;
19758;SDS011;10038;42.662;23.278;2022-12-18T01:42:20;10.30;;;7.60;;
19758;SDS011;10038;42.662;23.278;2022-12-18T01:44:57;8.87;;;5.60;;
19758;SDS011;10038;42.662;23.278;2022-12-18T01:47:25;9.73;;;6.20;;
19758;SDS011;10038;42.662;23.278;2022-12-18T01:49:53;10.80;;;6.27;;
19758;SDS011;10038;42.662;23.278;2022-12-18T01:52:20;19.10;;;10.00;;
19758;SDS011;10038;42.662;23.278;2022-12-18T01:54:48;15.57;;;9.20;;
19758;SDS011;10038;42.662;23.278;2022-12-18T01:57:15;15.33;;;9.00;;
19758;SDS011;10038;42.662;23.278;2022-12-18T01:59:42;12.20;;;7.57;;
19758;SDS011;10038;42.662;23.278;2022-12-18T02:02:09;12.20;;;7.27;;
19758;SDS011;10038;42.662;23.278;2022-12-18T02:04:37;9.77;;;6.30;;
19758;SDS011;10038;42.662;23.278;2022-12-18T02:07:09;11.30;;;6.37;;
19758;SDS011;10038;42.662;23.278;2022-12-18T02:09:39;11.10;;;6.37;;
19758;SDS011;10038;42.662;23.278;2022-12-18T02:12:10;10.87;;;6.90;;
19758;SDS011;10038;42.662;23.278;2022-12-18T02:14:40;12.93;;;8.23;;
19758;SDS011;10038;42.662;23.278;2022-12-18T02:17:10;11.73;;;6.73;;
19758;SDS011;10038;42.662;23.278;2022-12-18T02:19:40;12.50;;;6.93;;
19758;SDS011;10038;42.662;23.278;2022-12-18T02:22:14;10.20;;;6.17;;
19758;SDS011;10038;42.662;23.278;2022-12-18T02:24:43;13.20;;;6.23;;
19758;SDS011;10038;42.662;23.278;2022-12-18T02:27:13;10.03;;;6.67;;
19758;SDS011;10038;42.662;23.278;2022-12-18T02:29:40;15.60;;;6.60;;
19758;SDS011;10038;42.662;23.278;2022-12-18T02:32:08;12.77;;;7.90;;
19758;SDS011;10038;42.662;23.278;2022-12-18T02:34:36;11.87;;;6.67;;
19758;SDS011;10038;42.662;23.278;2022-12-18T02:37:05;10.73;;;6.67;;
19758;SDS011;10038;42.662;23.278;2022-12-18T02:39:34;10.87;;;6.80;;
19758;SDS011;10038;42.662;23.278;2022-12-18T02:42:01;9.20;;;5.70;;
19758;SDS011;10038;42.662;23.278;2022-12-18T02:44:34;9.03;;;6.63;;
19758;SDS011;10038;42.662;23.278;2022-12-18T02:47:01;9.37;;;5.67;;
19758;SDS011;10038;42.662;23.278;2022-12-18T02:49:30;11.50;;;6.43;;
19758;SDS011;10038;42.662;23.278;2022-12-18T02:52:01;9.27;;;5.50;;
19758;SDS011;10038;42.662;23.278;2022-12-18T02:54:35;9.17;;;6.13;;
19758;SDS011;10038;42.662;23.278;2022-12-18T02:57:04;9.20;;;6.27;;
19758;SDS011;10038;42.662;23.278;2022-12-18T02:59:36;10.87;;;5.97;;
19758;SDS011;10038;42.662;23.278;2022-12-18T03:02:06;10.47;;;6.83;;
19758;SDS011;10038;42.662;23.278;2022-12-18T03:04:34;9.93;;;6.47;;
19758;SDS011;10038;42.662;23.278;2022-12-18T03:07:04;8.30;;;6.30;;
19758;SDS011;10038;42.662;23.278;2022-12-18T03:09:33;13.83;;;5.17;;
19758;SDS011;10038;42.662;23.278;2022-12-18T03:12:02;7.77;;;5.53;;
19758;SDS011;10038;42.662;23.278;2022-12-18T03:14:50;9.90;;;5.80;;
19758;SDS011;10038;42.662;23.278;2022-12-18T03:17:18;7.60;;;5.27;;
19758;SDS011;10038;42.662;23.278;2022-12-18T03:19:46;8.67;;;5.20;;
19758;SDS011;10038;42.662;23.278;2022-12-18T03:22:13;8.07;;;5.30;;
19758;SDS011;10038;42.662;23.278;2022-12-18T03:24:41;7.57;;;5.30;;
19758;SDS011;10038;42.662;23.278;2022-12-18T03:27:08;5.87;;;3.90;;
19758;SDS011;10038;42.662;23.278;2022-12-18T03:29:38;7.40;;;4.20;;
19758;SDS011;10038;42.662;23.278;2022-12-18T03:32:08;9.77;;;3.93;;
19758;SDS011;10038;42.662;23.278;2022-12-18T03:34:37;5.97;;;4.00;;
19758;SDS011;10038;42.662;23.278;2022-12-18T03:37:05;5.97;;;4.30;;
19758;SDS011;10038;42.662;23.278;2022-12-18T03:39:32;8.07;;;5.07;;
19758;SDS011;10038;42.662;23.278;2022-12-18T03:42:00;6.07;;;4.30;;
19758;SDS011;10038;42.662;23.278;2022-12-18T03:44:30;8.53;;;4.90;;
19758;SDS011;10038;42.662;23.278;2022-12-18T03:46:59;6.43;;;4.67;;
19758;SDS011;10038;42.662;23.278;2022-12-18T03:49:30;5.60;;;4.20;;
19758;SDS011;10038;42.662;23.278;2022-12-18T03:51:59;8.20;;;4.30;;
19758;SDS011;10038;42.662;23.278;2022-12-18T03:54:28;5.07;;;3.57;;
19758;SDS011;10038;42.662;23.278;2022-12-18T03:56:58;6.33;;;3.60;;
19758;SDS011;10038;42.662;23.278;2022-12-18T03:59:26;6.67;;;4.27;;
19758;SDS011;10038;42.662;23.278;2022-12-18T04:01:53;9.30;;;4.83;;
19758;SDS011;10038;42.662;23.278;2022-12-18T04:04:22;8.03;;;4.23;;
19758;SDS011;10038;42.662;23.278;2022-12-18T04:06:52;9.20;;;4.37;;
19758;SDS011;10038;42.662;23.278;2022-12-18T04:09:18;6.87;;;4.83;;
19758;SDS011;10038;42.662;23.278;2022-12-18T04:11:45;7.97;;;4.57;;
19758;SDS011;10038;42.662;23.278;2022-12-18T04:14:12;6.07;;;3.90;;
19758;SDS011;10038;42.662;23.278;2022-12-18T04:16:39;8.67;;;5.23;;
19758;SDS011;10038;42.662;23.278;2022-12-18T04:19:05;8.97;;;4.80;;
19758;SDS011;10038;42.662;23.278;2022-12-18T04:21:32;6.87;;;4.27;;
19758;SDS011;10038;42.662;23.278;2022-12-18T04:23:59;9.10;;;4.80;;
19758;SDS011;10038;42.662;23.278;2022-12-18T04:26:26;9.03;;;4.83;;
19758;SDS011;10038;42.662;23.278;2022-12-18T04:28:53;8.03;;;5.00;;
19758;SDS011;10038;42.662;23.278;2022-12-18T04:31:19;8.37;;;4.90;;
19758;SDS011;10038;42.662;23.278;2022-12-18T04:33:45;5.53;;;4.60;;
19758;SDS011;10038;42.662;23.278;2022-12-18T04:36:12;9.33;;;5.50;;
19758;SDS011;10038;42.662;23.278;2022-12-18T04:38:38;8.50;;;4.32;;
19758;SDS011;10038;42.662;23.278;2022-12-18T04:41:06;8.50;;;5.40;;
19758;SDS011;10038;42.662;23.278;2022-12-18T04:43:33;8.23;;;5.70;;
19758;SDS011;10038;42.662;23.278;2022-12-18T04:46:03;12.20;;;6.07;;
19758;SDS011;10038;42.662;23.278;2022-12-18T04:48:29;10.37;;;5.43;;
19758;SDS011;10038;42.662;23.278;2022-12-18T04:50:56;10.23;;;5.97;;
19758;SDS011;10038;42.662;23.278;2022-12-18T04:53:22;9.63;;;5.28;;
19758;SDS011;10038;42.662;23.278;2022-12-18T04:55:49;9.20;;;5.30;;
19758;SDS011;10038;42.662;23.278;2022-12-18T04:58:17;11.37;;;5.77;;
19758;SDS011;10038;42.662;23.278;2022-12-18T05:00:43;13.23;;;6.33;;
19758;SDS011;10038;42.662;23.278;2022-12-18T05:03:10;9.67;;;5.20;;
19758;SDS011;10038;42.662;23.278;2022-12-18T05:05:36;8.80;;;5.37;;
19758;SDS011;10038;42.662;23.278;2022-12-18T05:08:03;8.77;;;5.00;;
19758;SDS011;10038;42.662;23.278;2022-12-18T05:10:29;8.63;;;5.27;;
19758;SDS011;10038;42.662;23.278;2022-12-18T05:12:56;7.43;;;5.47;;
19758;SDS011;10038;42.662;23.278;2022-12-18T05:15:28;7.97;;;5.37;;
19758;SDS011;10038;42.662;23.278;2022-12-18T05:17:55;9.43;;;5.97;;
19758;SDS011;10038;42.662;23.278;2022-12-18T05:20:22;10.93;;;6.07;;
19758;SDS011;10038;42.662;23.278;2022-12-18T05:22:48;11.17;;;6.60;;
19758;SDS011;10038;42.662;23.278;2022-12-18T05:25:15;9.23;;;5.57;;
19758;SDS011;10038;42.662;23.278;2022-12-18T05:27:41;10.00;;;6.67;;
19758;SDS011;10038;42.662;23.278;2022-12-18T05:30:08;13.67;;;6.97;;
19758;SDS011;10038;42.662;23.278;2022-12-18T05:32:36;12.47;;;7.20;;
19758;SDS011;10038;42.662;23.278;2022-12-18T05:35:03;12.13;;;6.30;;
19758;SDS011;10038;42.662;23.278;2022-12-18T05:37:30;10.70;;;6.40;;
19758;SDS011;10038;42.662;23.278;2022-12-18T05:39:56;11.50;;;6.37;;
19758;SDS011;10038;42.662;23.278;2022-12-18T05:42:23;12.13;;;7.03;;
19758;SDS011;10038;42.662;23.278;2022-12-18T05:44:49;13.73;;;6.43;;
19758;SDS011;10038;42.662;23.278;2022-12-18T05:47:16;10.83;;;6.20;;
19758;SDS011;10038;42.662;23.278;2022-12-18T05:49:44;11.63;;;6.57;;
19758;SDS011;10038;42.662;23.278;2022-12-18T05:52:10;12.83;;;7.47;;
19758;SDS011;10038;42.662;23.278;2022-12-18T05:54:36;12.40;;;7.00;;
19758;SDS011;10038;42.662;23.278;2022-12-18T05:57:04;12.50;;;7.20;;
19758;SDS011;10038;42.662;23.278;2022-12-18T05:59:30;17.80;;;8.47;;
19758;SDS011;10038;42.662;23.278;2022-12-18T06:01:57;12.47;;;7.33;;
19758;SDS011;10038;42.662;23.278;2022-12-18T06:04:23;19.25;;;7.70;;
19758;SDS011;10038;42.662;23.278;2022-12-18T06:06:51;11.73;;;7.20;;
19758;SDS011;10038;42.662;23.278;2022-12-18T06:09:17;14.17;;;8.03;;
19758;SDS011;10038;42.662;23.278;2022-12-18T06:11:44;16.80;;;8.80;;
19758;SDS011;10038;42.662;23.278;2022-12-18T06:14:10;11.73;;;6.88;;
19758;SDS011;10038;42.662;23.278;2022-12-18T06:16:37;14.30;;;7.77;;
19758;SDS011;10038;42.662;23.278;2022-12-18T06:19:04;15.77;;;7.50;;
19758;SDS011;10038;42.662;23.278;2022-12-18T06:21:31;17.63;;;8.07;;
19758;SDS011;10038;42.662;23.278;2022-12-18T06:23:59;14.53;;;6.80;;
19758;SDS011;10038;42.662;23.278;2022-12-18T06:26:26;11.87;;;7.60;;
19758;SDS011;10038;42.662;23.278;2022-12-18T06:28:52;9.37;;;5.80;;
19758;SDS011;10038;42.662;23.278;2022-12-18T06:31:19;10.57;;;6.23;;
19758;SDS011;10038;42.662;23.278;2022-12-18T06:33:45;12.07;;;6.30;;
19758;SDS011;10038;42.662;23.278;2022-12-18T06:36:12;11.03;;;6.60;;
19758;SDS011;10038;42.662;23.278;2022-12-18T06:38:40;15.17;;;9.77;;
19758;SDS011;10038;42.662;23.278;2022-12-18T06:41:08;12.25;;;7.53;;
19758;SDS011;10038;42.662;23.278;2022-12-18T06:43:34;10.77;;;6.83;;
19758;SDS011;10038;42.662;23.278;2022-12-18T06:46:01;16.53;;;8.87;;
19758;SDS011;10038;42.662;23.278;2022-12-18T06:48:28;13.77;;;7.37;;
19758;SDS011;10038;42.662;23.278;2022-12-18T06:50:55;11.50;;;7.13;;
19758;SDS011;10038;42.662;23.278;2022-12-18T06:53:21;12.27;;;7.27;;
19758;SDS011;10038;42.662;23.278;2022-12-18T06:55:48;19.53;;;9.80;;
19758;SDS011;10038;42.662;23.278;2022-12-18T06:58:16;16.10;;;7.73;;
19758;SDS011;10038;42.662;23.278;2022-12-18T07:00:42;13.30;;;7.57;;
19758;SDS011;10038;42.662;23.278;2022-12-18T07:03:09;16.00;;;7.73;;
19758;SDS011;10038;42.662;23.278;2022-12-18T07:05:39;10.40;;;7.03;;
19758;SDS011;10038;42.662;23.278;2022-12-18T07:08:05;13.17;;;7.97;;
19758;SDS011;10038;42.662;23.278;2022-12-18T07:10:40;14.07;;;8.33;;
19758;SDS011;10038;42.662;23.278;2022-12-18T07:13:06;15.60;;;7.90;;
19758;SDS011;10038;42.662;23.278;2022-12-18T07:15:34;14.83;;;8.37;;
19758;SDS011;10038;42.662;23.278;2022-12-18T07:18:01;13.90;;;7.10;;
19758;SDS011;10038;42.662;23.278;2022-12-18T07:20:27;13.27;;;8.10;;
19758;SDS011;10038;42.662;23.278;2022-12-18T07:22:54;13.43;;;7.47;;
19758;SDS011;10038;42.662;23.278;2022-12-18T07:25:20;11.35;;;7.63;;
19758;SDS011;10038;42.662;23.278;2022-12-18T07:27:47;16.00;;;7.80;;
19758;SDS011;10038;42.662;23.278;2022-12-18T07:30:13;16.10;;;8.00;;
19758;SDS011;10038;42.662;23.278;2022-12-18T07:32:41;14.90;;;7.70;;
19758;SDS011;10038;42.662;23.278;2022-12-18T07:35:07;14.10;;;7.00;;
19758;SDS011;10038;42.662;23.278;2022-12-18T07:37:34;11.90;;;7.53;;
19758;SDS011;10038;42.662;23.278;2022-12-18T07:40:00;12.10;;;7.37;;
19758;SDS011;10038;42.662;23.278;2022-12-18T07:42:27;15.87;;;7.70;;
19758;SDS011;10038;42.662;23.278;2022-12-18T07:44:59;12.10;;;6.60;;
19758;SDS011;10038;42.662;23.278;2022-12-18T07:47:26;16.47;;;7.90;;
19758;SDS011;10038;42.662;23.278;2022-12-18T07:49:54;15.70;;;8.50;;
19758;SDS011;10038;42.662;23.278;2022-12-18T07:52:21;17.43;;;8.67;;
19758;SDS011;10038;42.662;23.278;2022-12-18T07:54:47;17.27;;;8.40;;
19758;SDS011;10038;42.662;23.278;2022-12-18T07:57:15;16.87;;;9.07;;
19758;SDS011;10038;42.662;23.278;2022-12-18T07:59:41;14.70;;;8.83;;
19758;SDS011;10038;42.662;23.278;2022-12-18T08:02:08;18.13;;;10.07;;
19758;SDS011;10038;42.662;23.278;2022-12-18T08:04:34;17.27;;;9.03;;
19758;SDS011;10038;42.662;23.278;2022-12-18T08:07:03;14.80;;;9.03;;
19758;SDS011;10038;42.662;23.278;2022-12-18T08:09:29;19.50;;;10.77;;
19758;SDS011;10038;42.662;23.278;2022-12-18T08:11:56;16.60;;;8.70;;
19758;SDS011;10038;42.662;23.278;2022-12-18T08:14:22;17.83;;;10.37;;
19758;SDS011;10038;42.662;23.278;2022-12-18T08:16:49;19.40;;;9.55;;
19758;SDS011;10038;42.662;23.278;2022-12-18T08:19:15;18.27;;;10.02;;
19758;SDS011;10038;42.662;23.278;2022-12-18T08:21:41;27.00;;;11.70;;
19758;SDS011;10038;42.662;23.278;2022-12-18T08:24:09;19.27;;;9.90;;
19758;SDS011;10038;42.662;23.278;2022-12-18T08:26:37;28.23;;;11.77;;
19758;SDS011;10038;42.662;23.278;2022-12-18T08:29:03;20.95;;;11.20;;
19758;SDS011;10038;42.662;23.278;2022-12-18T08:31:30;19.05;;;10.48;;
19758;SDS011;10038;42.662;23.278;2022-12-18T08:33:56;22.00;;;11.67;;
19758;SDS011;10038;42.662;23.278;2022-12-18T08:36:23;26.47;;;12.53;;
19758;SDS011;10038;42.662;23.278;2022-12-18T08:38:50;25.77;;;11.30;;
19758;SDS011;10038;42.662;23.278;2022-12-18T08:41:18;26.27;;;13.20;;
19758;SDS011;10038;42.662;23.278;2022-12-18T08:43:44;21.27;;;12.53;;
19758;SDS011;10038;42.662;23.278;2022-12-18T08:46:31;23.07;;;11.43;;
19758;SDS011;10038;42.662;23.278;2022-12-18T08:48:58;25.00;;;12.97;;
19758;SDS011;10038;42.662;23.278;2022-12-18T08:51:25;20.63;;;12.67;;
19758;SDS011;10038;42.662;23.278;2022-12-18T08:53:52;25.40;;;13.23;;
19758;SDS011;10038;42.662;23.278;2022-12-18T08:56:20;18.90;;;12.37;;
19758;SDS011;10038;42.662;23.278;2022-12-18T08:58:46;23.57;;;11.30;;
19758;SDS011;10038;42.662;23.278;2022-12-18T09:01:13;23.33;;;12.03;;
19758;SDS011;10038;42.662;23.278;2022-12-18T09:03:39;22.80;;;12.00;;
19758;SDS011;10038;42.662;23.278;2022-12-18T09:06:06;24.47;;;12.70;;
19758;SDS011;10038;42.662;23.278;2022-12-18T09:08:33;23.73;;;12.27;;
19758;SDS011;10038;42.662;23.278;2022-12-18T09:11:02;25.47;;;12.40;;
19758;SDS011;10038;42.662;23.278;2022-12-18T09:13:30;22.93;;;11.93;;
19758;SDS011;10038;42.662;23.278;2022-12-18T09:15:57;29.03;;;13.67;;
19758;SDS011;10038;42.662;23.278;2022-12-18T09:18:23;24.60;;;13.77;;
19758;SDS011;10038;42.662;23.278;2022-12-18T09:20:50;23.47;;;12.30;;
19758;SDS011;10038;42.662;23.278;2022-12-18T09:23:18;28.10;;;13.53;;
19758;SDS011;10038;42.662;23.278;2022-12-18T09:25:44;29.90;;;13.17;;
19758;SDS011;10038;42.662;23.278;2022-12-18T09:28:11;26.47;;;12.80;;
19758;SDS011;10038;42.662;23.278;2022-12-18T09:30:43;26.87;;;12.37;;
19758;SDS011;10038;42.662;23.278;2022-12-18T09:33:09;22.70;;;11.70;;
19758;SDS011;10038;42.662;23.278;2022-12-18T09:35:36;24.60;;;12.30;;
19758;SDS011;10038;42.662;23.278;2022-12-18T09:38:05;21.90;;;12.00;;
19758;SDS011;10038;42.662;23.278;2022-12-18T09:40:35;23.60;;;12.07;;
19758;SDS011;10038;42.662;23.278;2022-12-18T09:43:03;22.33;;;12.40;;
19758;SDS011;10038;42.662;23.278;2022-12-18T09:45:30;21.30;;;11.67;;
19758;SDS011;10038;42.662;23.278;2022-12-18T09:48:02;23.87;;;11.50;;
19758;SDS011;10038;42.662;23.278;2022-12-18T09:50:29;19.07;;;10.17;;
19758;SDS011;10038;42.662;23.278;2022-12-18T09:52:58;21.70;;;11.43;;
19758;SDS011;10038;42.662;23.278;2022-12-18T09:55:28;22.03;;;11.50;;
19758;SDS011;10038;42.662;23.278;2022-12-18T09:57:57;22.00;;;11.73;;
19758;SDS011;10038;42.662;23.278;2022-12-18T10:00:25;21.37;;;11.20;;
19758;SDS011;10038;42.662;23.278;2022-12-18T10:02:53;23.67;;;12.87;;
19758;SDS011;10038;42.662;23.278;2022-12-18T10:05:27;18.70;;;10.20;;
19758;SDS011;10038;42.662;23.278;2022-12-18T10:07:56;19.03;;;11.53;;
19758;SDS011;10038;42.662;23.278;2022-12-18T10:10:27;22.20;;;10.60;;
19758;SDS011;10038;42.662;23.278;2022-12-18T10:12:58;38.40;;;11.50;;
19758;SDS011;10038;42.662;23.278;2022-12-18T10:15:28;17.17;;;10.37;;
19758;SDS011;10038;42.662;23.278;2022-12-18T10:17:58;17.90;;;10.47;;
19758;SDS011;10038;42.662;23.278;2022-12-18T10:20:32;21.00;;;10.20;;
19758;SDS011;10038;42.662;23.278;2022-12-18T10:23:04;20.20;;;9.80;;
19758;SDS011;10038;42.662;23.278;2022-12-18T10:25:34;14.33;;;8.63;;
19758;SDS011;10038;42.662;23.278;2022-12-18T10:28:07;20.33;;;9.03;;
19758;SDS011;10038;42.662;23.278;2022-12-18T10:30:36;18.93;;;10.40;;
19758;SDS011;10038;42.662;23.278;2022-12-18T10:33:04;18.30;;;9.83;;
19758;SDS011;10038;42.662;23.278;2022-12-18T10:35:32;15.40;;;8.50;;
19758;SDS011;10038;42.662;23.278;2022-12-18T10:38:00;18.50;;;9.00;;
19758;SDS011;10038;42.662;23.278;2022-12-18T10:40:26;16.63;;;8.40;;
19758;SDS011;10038;42.662;23.278;2022-12-18T10:43:02;13.03;;;8.60;;
19758;SDS011;10038;42.662;23.278;2022-12-18T10:45:29;14.63;;;7.93;;
19758;SDS011;10038;42.662;23.278;2022-12-18T10:47:56;15.55;;;7.68;;
19758;SDS011;10038;42.662;23.278;2022-12-18T10:50:24;16.45;;;9.95;;
19758;SDS011;10038;42.662;23.278;2022-12-18T10:52:55;18.67;;;9.27;;
19758;SDS011;10038;42.662;23.278;2022-12-18T10:55:21;18.02;;;9.27;;
19758;SDS011;10038;42.662;23.278;2022-12-18T10:57:48;20.27;;;9.80;;
19758;SDS011;10038;42.662;23.278;2022-12-18T11:00:20;15.27;;;8.70;;
19758;SDS011;10038;42.662;23.278;2022-12-18T11:02:47;17.13;;;8.37;;
19758;SDS011;10038;42.662;23.278;2022-12-18T11:05:24;17.90;;;8.63;;
19758;SDS011;10038;42.662;23.278;2022-12-18T11:07:51;16.50;;;8.53;;
19758;SDS011;10038;42.662;23.278;2022-12-18T11:10:21;16.10;;;8.87;;
19758;SDS011;10038;42.662;23.278;2022-12-18T11:12:47;19.73;;;8.70;;
19758;SDS011;10038;42.662;23.278;2022-12-18T11:15:15;16.20;;;8.97;;
19758;SDS011;10038;42.662;23.278;2022-12-18T11:17:42;16.03;;;7.50;;
19758;SDS011;10038;42.662;23.278;2022-12-18T11:20:19;21.27;;;9.20;;
19758;SDS011;10038;42.662;23.278;2022-12-18T11:22:53;15.60;;;8.43;;
19758;SDS011;10038;42.662;23.278;2022-12-18T11:25:22;13.53;;;8.07;;
19758;SDS011;10038;42.662;23.278;2022-12-18T11:27:49;15.87;;;7.77;;
19758;SDS011;10038;42.662;23.278;2022-12-18T11:30:20;13.70;;;7.70;;
19758;SDS011;10038;42.662;23.278;2022-12-18T11:32:47;11.47;;;7.53;;
19758;SDS011;10038;42.662;23.278;2022-12-18T11:35:16;13.27;;;6.37;;
19758;SDS011;10038;42.662;23.278;2022-12-18T11:37:46;15.67;;;7.10;;
19758;SDS011;10038;42.662;23.278;2022-12-18T11:40:14;15.77;;;8.60;;
19758;SDS011;10038;42.662;23.278;2022-12-18T11:42:46;15.73;;;8.30;;
19758;SDS011;10038;42.662;23.278;2022-12-18T11:45:20;16.80;;;8.00;;
19758;SDS011;10038;42.662;23.278;2022-12-18T11:47:49;17.80;;;7.80;;
19758;SDS011;10038;42.662;23.278;2022-12-18T11:50:19;16.08;;;6.78;;
19758;SDS011;10038;42.662;23.278;2022-12-18T11:52:47;18.65;;;9.00;;
19758;SDS011;10038;42.662;23.278;2022-12-18T11:55:14;18.08;;;9.77;;
19758;SDS011;10038;42.662;23.278;2022-12-18T11:57:44;15.37;;;9.10;;
19758;SDS011;10038;42.662;23.278;2022-12-18T12:00:18;13.27;;;7.80;;
19758;SDS011;10038;42.662;23.278;2022-12-18T12:03:11;21.07;;;9.77;;
19758;SDS011;10038;42.662;23.278;2022-12-18T12:05:44;16.83;;;8.40;;
19758;SDS011;10038;42.662;23.278;2022-12-18T12:08:17;14.90;;;7.90;;
19758;SDS011;10038;42.662;23.278;2022-12-18T12:10:48;16.20;;;7.55;;
19758;SDS011;10038;42.662;23.278;2022-12-18T12:13:20;17.07;;;9.07;;
19758;SDS011;10038;42.662;23.278;2022-12-18T12:15:54;20.03;;;9.27;;
19758;SDS011;10038;42.662;23.278;2022-12-18T12:18:27;14.67;;;8.03;;
19758;SDS011;10038;42.662;23.278;2022-12-18T12:20:57;12.50;;;8.00;;
19758;SDS011;10038;42.662;23.278;2022-12-18T12:23:27;17.90;;;8.40;;
19758;SDS011;10038;42.662;23.278;2022-12-18T12:25:56;14.67;;;8.50;;
19758;SDS011;10038;42.662;23.278;2022-12-18T12:28:28;15.93;;;7.90;;
19758;SDS011;10038;42.662;23.278;2022-12-18T12:31:01;10.87;;;6.60;;
19758;SDS011;10038;42.662;23.278;2022-12-18T12:33:34;20.47;;;9.50;;
19758;SDS011;10038;42.662;23.278;2022-12-18T12:36:04;19.27;;;10.70;;
19758;SDS011;10038;42.662;23.278;2022-12-18T12:38:35;19.53;;;9.47;;
19758;SDS011;10038;42.662;23.278;2022-12-18T12:41:04;14.20;;;8.07;;
19758;SDS011;10038;42.662;23.278;2022-12-18T12:43:51;18.60;;;9.20;;
19758;SDS011;10038;42.662;23.278;2022-12-18T12:46:19;20.90;;;9.57;;
19758;SDS011;10038;42.662;23.278;2022-12-18T12:48:47;15.25;;;8.70;;
19758;SDS011;10038;42.662;23.278;2022-12-18T12:51:16;16.37;;;9.13;;
19758;SDS011;10038;42.662;23.278;2022-12-18T12:53:43;18.27;;;9.13;;
19758;SDS011;10038;42.662;23.278;2022-12-18T12:56:11;20.87;;;9.63;;
19758;SDS011;10038;42.662;23.278;2022-12-18T12:58:41;18.80;;;10.13;;
19758;SDS011;10038;42.662;23.278;2022-12-18T13:01:13;17.47;;;8.60;;
19758;SDS011;10038;42.662;23.278;2022-12-18T13:03:53;19.57;;;9.97;;
19758;SDS011;10038;42.662;23.278;2022-12-18T13:06:23;13.03;;;8.30;;
19758;SDS011;10038;42.662;23.278;2022-12-18T13:08:55;17.63;;;10.20;;
19758;SDS011;10038;42.662;23.278;2022-12-18T13:11:29;21.17;;;9.27;;
19758;SDS011;10038;42.662;23.278;2022-12-18T13:14:23;18.53;;;10.00;;
19758;SDS011;10038;42.662;23.278;2022-12-18T13:16:50;16.57;;;10.00;;
19758;SDS011;10038;42.662;23.278;2022-12-18T13:19:25;23.30;;;9.97;;
19758;SDS011;10038;42.662;23.278;2022-12-18T13:21:52;22.60;;;10.80;;
19758;SDS011;10038;42.662;23.278;2022-12-18T13:24:22;23.00;;;10.50;;
19758;SDS011;10038;42.662;23.278;2022-12-18T13:26:49;16.80;;;9.27;;
19758;SDS011;10038;42.662;23.278;2022-12-18T13:29:39;16.67;;;9.40;;
19758;SDS011;10038;42.662;23.278;2022-12-18T13:32:18;23.03;;;12.30;;
19758;SDS011;10038;42.662;23.278;2022-12-18T13:34:46;15.37;;;9.10;;
19758;SDS011;10038;42.662;23.278;2022-12-18T13:39:58;17.57;;;9.53;;
19758;SDS011;10038;42.662;23.278;2022-12-18T13:42:38;19.30;;;9.93;;
19758;SDS011;10038;42.662;23.278;2022-12-18T13:48:14;22.63;;;9.30;;
19758;SDS011;10038;42.662;23.278;2022-12-18T13:50:42;14.87;;;9.40;;
19758;SDS011;10038;42.662;23.278;2022-12-18T13:53:11;16.10;;;9.37;;
19758;SDS011;10038;42.662;23.278;2022-12-18T13:55:44;26.47;;;10.37;;
19758;SDS011;10038;42.662;23.278;2022-12-18T13:58:11;21.40;;;11.03;;
19758;SDS011;10038;42.662;23.278;2022-12-18T14:00:40;33.13;;;13.10;;
19758;SDS011;10038;42.662;23.278;2022-12-18T14:03:15;24.10;;;10.83;;
19758;SDS011;10038;42.662;23.278;2022-12-18T14:05:43;14.57;;;8.73;;
19758;SDS011;10038;42.662;23.278;2022-12-18T14:08:11;19.70;;;9.87;;
19758;SDS011;10038;42.662;23.278;2022-12-18T14:10:39;17.93;;;9.30;;
19758;SDS011;10038;42.662;23.278;2022-12-18T14:13:06;21.03;;;10.17;;
19758;SDS011;10038;42.662;23.278;2022-12-18T14:15:34;19.17;;;10.13;;
19758;SDS011;10038;42.662;23.278;2022-12-18T14:18:02;19.33;;;10.67;;
19758;SDS011;10038;42.662;23.278;2022-12-18T14:20:30;15.67;;;9.50;;
19758;SDS011;10038;42.662;23.278;2022-12-18T14:22:58;22.17;;;11.93;;
19758;SDS011;10038;42.662;23.278;2022-12-18T14:25:26;26.53;;;11.20;;
19758;SDS011;10038;42.662;23.278;2022-12-18T14:27:53;23.03;;;12.53;;
19758;SDS011;10038;42.662;23.278;2022-12-18T14:30:28;24.83;;;12.70;;
19758;SDS011;10038;42.662;23.278;2022-12-18T14:33:02;22.93;;;9.97;;
19758;SDS011;10038;42.662;23.278;2022-12-18T14:35:28;16.17;;;10.03;;
19758;SDS011;10038;42.662;23.278;2022-12-18T14:38:09;18.77;;;9.60;;